Station: Clare  

  Atmospheric Gas Attenuation - ITU Rec 676-11   ----------------- dB/100km -----------------
Date Time Temp RH % AH g/m3 Dew Point Wind Direction Speed kph Gust kph Barometer mB Rainfall Since 9am 24GHz 47GHz 76GHz 122GHz 134GHz 241GHz
09/05 19:20 13 89 10.09 11.2 6 7 1029 0 22.8 29.3 47.2 124.0 121.4 418.6
09/05 19:10 13.1 88 10.04 11.2 7 7 1029 0 22.7 29.1 46.9 123.2 120.5 415.6
09/05 19:00 13.2 88 10.1 11.3 9 15 1028.8 0 22.8 29.2 47.1 123.7 121.2 417.9
09/05 18:50 13.2 88 10.1 11.3 11 13 1028.8 0 22.8 29.2 47.1 123.7 121.2 417.9
09/05 18:40 13.3 88 10.17 11.4 7 9 1028.7 0 23.0 29.3 47.3 124.4 122.0 420.8
09/05 18:30 13.3 88 10.17 11.4 9 13 1028.7 0 23.0 29.3 47.3 124.4 122.0 420.8
09/05 18:20 13.2 88 10.1 11.3 11 13 1028.7 0 22.8 29.2 47.1 123.7 121.2 417.9
09/05 18:10 13.2 88 10.1 11.3 6 7 1028.6 0 22.8 29.2 47.1 123.7 121.2 417.9
09/05 18:00 13.3 87 10.05 11.2 7 11 1028.5 0 22.7 29.1 46.8 123.0 120.3 414.8
09/05 17:50 13.3 87 10.05 11.2 7 9 1028.5 0 22.7 29.1 46.8 123.0 120.3 414.8
09/05 17:40 13.3 86 9.94 11 7 11 1028.5 0 22.5 28.9 46.3 121.7 118.7 409.4
09/05 17:30 13.3 86 9.94 11 7 13 1028.2 0 22.5 28.9 46.3 121.7 118.7 409.3
09/05 17:20 13.5 86 10.06 11.2 9 11 1028.3 0 22.7 29.0 46.7 122.7 120.1 414.2
09/05 17:10 13.6 86 10.12 11.3 11 11 1028.3 0 22.8 29.1 46.9 123.3 120.8 416.6
09/05 17:00 13.7 85 10.07 11.2 9 13 1028.2 0 22.7 29.0 46.7 122.5 119.9 413.6
09/05 16:50 13.8 83 9.89 11 9 9 1028.2 0 22.3 28.6 45.8 120.3 117.2 404.2
09/05 16:40 13.8 82 9.77 10.8 7 9 1028.2 0 22.1 28.4 45.3 119.0 115.6 398.4
09/05 16:30 13.9 81 9.71 10.7 11 15 1028.1 0 21.9 28.3 45.0 118.1 114.6 394.9
09/05 16:20 13.9 81 9.71 10.7 13 17 1028.2 0 21.9 28.3 45.0 118.1 114.6 395.0
09/05 16:10 14.1 80 9.71 10.7 7 9 1028.2 0 21.9 28.2 44.9 117.8 114.3 394.0
09/05 16:00 14.1 80 9.71 10.7 9 17 1028 0 21.9 28.2 44.9 117.8 114.3 393.9
09/05 15:50 14.1 79 9.59 10.5 11 15 1028.2 0 21.7 28.0 44.4 116.5 112.6 388.2
09/05 15:40 14.2 80 9.77 10.8 9 11 1028.2 0 22.0 28.3 45.1 118.3 115.0 396.3
09/05 15:30 14.3 79 9.71 10.7 11 15 1028.2 0 21.9 28.1 44.8 117.5 114.0 392.9
09/05 15:20 14.3 79 9.71 10.7 11 13 1028.3 0 21.9 28.2 44.8 117.5 114.0 393.0
09/05 15:10 14.3 80 9.83 10.9 11 13 1028.3 0 22.2 28.4 45.3 118.9 115.7 398.8
09/05 15:00 14.3 79 9.71 10.7 9 19 1028.1 0 21.9 28.1 44.8 117.5 114.0 392.9
09/05 14:50 14.6 77 9.64 10.6 11 13 1028.2 0 21.7 27.9 44.3 116.3 112.6 388.1
09/05 14:40 14.8 76 9.63 10.6 4 6 1028.3 0 21.7 27.9 44.2 115.9 112.2 386.6
09/05 14:30 14.7 75 9.44 10.3 7 15 1028.2 0 21.3 27.6 43.4 113.9 109.7 378.1
09/05 14:20 14.5 74 9.2 9.9 11 13 1028.4 0 20.8 27.2 42.6 111.6 106.8 367.7
09/05 14:10 14.4 78 9.64 10.6 9 11 1028.5 0 21.8 28.0 44.4 116.6 112.9 389.2
09/05 14:00 14 80 9.65 10.6 7 17 1028.6 0 21.8 28.2 44.7 117.3 113.6 391.7
09/05 13:50 13.8 80 9.53 10.4 9 11 1028.7 0 21.6 28.0 44.3 116.3 112.3 386.9
09/05 13:40 13.9 80 9.59 10.5 7 9 1028.7 0 21.7 28.1 44.5 116.8 113.0 389.3
09/05 13:30 13.9 81 9.71 10.7 9 13 1028.8 0 21.9 28.3 45.0 118.2 114.6 395.2
09/05 13:20 14.1 80 9.71 10.7 9 11 1029 0 21.9 28.2 44.9 117.9 114.4 394.2
09/05 13:10 14.1 80 9.71 10.7 7 9 1029.1 0 21.9 28.2 44.9 117.9 114.4 394.2
09/05 13:00 13.9 81 9.71 10.7 9 13 1029 0 21.9 28.3 45.0 118.2 114.7 395.2
09/05 12:50 13.9 79 9.47 10.3 9 11 1029.2 0 21.4 27.9 44.0 115.6 111.4 383.7
09/05 12:40 13.8 80 9.53 10.4 9 13 1029.3 0 21.6 28.0 44.4 116.4 112.3 387.1
09/05 12:30 13.8 77 9.17 9.8 7 11 1029.4 0 20.8 27.4 42.9 112.4 107.4 369.9
09/05 12:20 13.6 78 9.18 9.8 7 9 1029.6 0 20.8 27.5 43.0 112.8 107.8 371.3
09/05 12:10 13.8 78 9.29 10 9 9 1029.8 0 21.0 27.7 43.4 113.8 109.1 375.7
09/05 12:00 13.8 78 9.29 10 7 11 1029.9 0 21.0 27.7 43.4 113.8 109.1 375.7
09/05 11:50 13.7 79 9.36 10.1 6 7 1030.2 0 21.2 27.8 43.7 114.7 110.2 379.7
09/05 11:40 13.7 79 9.36 10.1 9 13 1030.2 0 21.2 27.8 43.7 114.7 110.2 379.7
09/05 11:30 13.8 79 9.41 10.2 7 13 1030.3 0 21.3 27.9 43.9 115.2 110.8 381.6
09/05 11:20 13.7 79 9.36 10.1 9 11 1030.5 0 21.2 27.8 43.8 114.8 110.3 379.8
09/05 11:10 13.4 78 9.07 9.6 11 13 1030.7 0 20.6 27.5 42.7 112.0 106.7 367.3
09/05 11:00 13.6 80 9.42 10.2 7 11 1030.7 0 21.3 28.0 44.1 115.6 111.2 383.2
09/05 10:50 13.7 80 9.47 10.3 7 9 1030.8 0 21.4 28.0 44.2 116.0 111.8 385.2
09/05 10:40 13.6 79 9.3 10 11 11 1030.8 0 21.1 27.8 43.6 114.3 109.6 377.5
09/05 10:30 12.6 82 9.07 9.6 7 11 1030.9 0 20.6 27.7 43.2 113.2 107.8 371.2
09/05 10:20 12.8 84 9.41 10.2 7 9 1030.9 0 21.3 28.2 44.5 116.7 112.3 386.7
09/05 10:10 12.5 84 9.24 9.9 11 13 1030.8 0 21.0 28.0 43.9 115.2 110.3 379.9
09/05 10:00 12.6 86 9.52 10.3 7 11 1030.8 0 21.6 28.5 45.1 118.2 114.1 393.1
09/05 09:50 12.2 85 9.17 9.8 6 6 1030.8 0 20.9 28.0 43.8 114.9 109.8 377.9
09/05 09:40 11.8 85 8.95 9.4 7 9 1030.9 0 20.4 27.8 43.1 113.0 107.3 369.2
09/05 09:30 11.8 87 9.16 9.7 6 9 1031 0 20.9 28.1 44.0 115.4 110.2 379.5
09/05 09:20 11.5 87 8.99 9.4 7 9 1031 0 20.5 27.9 43.4 113.9 108.3 372.6
09/05 09:10 11.3 87 8.88 9.2 7 9 1030.9 0 20.3 27.8 43.1 112.9 107.0 368.1
09/05 09:00 11.3 87 8.88 9.2 4 11 1030.9 0 20.3 27.8 43.1 112.9 107.0 368.1
09/05 08:50 11.2 86 8.72 8.9 6 6 1030.8 0.2 20.0 27.6 42.4 111.2 104.9 360.7
09/05 08:40 11.2 87 8.82 9.1 9 11 1030.7 0.2 20.2 27.7 42.9 112.3 106.3 365.6
09/05 08:30 11.4 88 9.03 9.5 6 11 1030.5 0.2 20.6 28.0 43.6 114.4 108.9 374.9
09/05 08:20 11.2 89 9.02 9.5 0 0 1030.5 0.2 20.6 28.1 43.7 114.6 109.1 375.3
09/05 08:10 10.9 89 8.85 9.2 7 9 1030.4 0.2 20.2 27.9 43.1 113.1 107.1 368.4
09/05 08:00 10.9 90 8.95 9.3 7 11 1030.2 0.2 20.5 28.0 43.6 114.2 108.5 373.3
09/05 07:50 10.9 90 8.95 9.3 9 11 1030.3 0.2 20.5 28.0 43.6 114.2 108.5 373.3
09/05 07:40 10.9 90 8.95 9.3 6 6 1030.3 0.2 20.5 28.0 43.6 114.2 108.5 373.3
09/05 07:30 10.7 89 8.74 9 4 11 1030.2 0.2 20.0 27.7 42.8 112.1 105.8 363.9
09/05 07:20 10.7 89 8.74 9 4 6 1030.3 0.2 20.0 27.7 42.8 112.1 105.8 363.9
09/05 07:10 10.7 89 8.74 9 7 9 1030.2 0.2 20.0 27.7 42.8 112.1 105.8 363.9
09/05 07:00 10.7 89 8.74 9 4 9 1030 0.2 20.0 27.7 42.8 112.1 105.8 363.8
09/05 06:50 10.7 89 8.74 9 6 7 1030.1 0.2 20.0 27.7 42.8 112.1 105.8 363.8
09/05 06:40 10.8 89 8.8 9.1 0 0 1030 0.2 20.1 27.8 43.0 112.6 106.5 366.3
09/05 06:30 10.7 89 8.74 9 2 6 1029.9 0.2 20.0 27.7 42.8 112.1 105.8 363.8
09/05 06:20 10.7 89 8.74 9 0 0 1029.8 0.2 20.0 27.7 42.8 112.1 105.8 363.8
09/05 06:10 10.7 89 8.74 9 4 6 1029.7 0.2 20.0 27.7 42.8 112.0 105.8 363.7
09/05 06:00 10.7 89 8.74 9 6 7 1029.5 0.2 20.0 27.7 42.7 112.0 105.8 363.7
09/05 05:50 10.6 89 8.69 8.9 6 7 1029.5 0.2 19.9 27.6 42.6 111.6 105.2 361.7
09/05 05:40 10.6 89 8.69 8.9 0 0 1029.5 0.2 19.9 27.6 42.6 111.6 105.2 361.7
09/05 05:30 10.6 89 8.69 8.9 4 7 1029.3 0.2 19.9 27.6 42.6 111.6 105.2 361.6
09/05 05:20 10.7 89 8.74 9 4 6 1029.3 0.2 20.0 27.7 42.7 112.0 105.8 363.6
09/05 05:10 10.6 89 8.69 8.9 0 0 1029.3 0.2 19.9 27.6 42.6 111.6 105.2 361.6
09/05 05:00 10.6 89 8.69 8.9 2 7 1029.2 0.2 19.9 27.6 42.6 111.6 105.2 361.6
09/05 04:50 10.6 89 8.69 8.9 0 0 1029.3 0.2 19.9 27.6 42.6 111.6 105.2 361.6
09/05 04:40 10.6 89 8.69 8.9 6 7 1029.2 0.2 19.9 27.6 42.6 111.6 105.2 361.6
09/05 04:30 10.6 89 8.69 8.9 4 9 1029.1 0.2 19.9 27.6 42.6 111.6 105.2 361.6
09/05 04:20 10.6 89 8.69 8.9 0 0 1029.2 0.2 19.9 27.6 42.6 111.6 105.2 361.6
09/05 04:10 10.6 89 8.69 8.9 7 9 1029.2 0.2 19.9 27.6 42.6 111.6 105.2 361.6
09/05 04:00 10.6 89 8.69 8.9 6 9 1029.1 0.2 19.9 27.6 42.6 111.6 105.2 361.6
09/05 03:50 10.7 89 8.74 9 6 7 1029.2 0.2 20.0 27.7 42.7 112.0 105.7 363.6
09/05 03:40 10.7 89 8.74 9 7 9 1029.2 0.2 20.0 27.7 42.7 112.0 105.7 363.6
09/05 03:30 10.8 89 8.8 9.1 9 13 1029 0.2 20.1 27.7 42.9 112.5 106.4 366.0
09/05 03:20 10.7 88 8.65 8.8 9 13 1029.1 0.2 19.8 27.5 42.3 111.0 104.5 359.2
09/05 03:10 10.8 89 8.8 9.1 9 13 1029.2 0.2 20.1 27.7 42.9 112.5 106.4 366.1
09/05 03:00 10.7 88 8.65 8.8 7 15 1029.2 0.2 19.8 27.5 42.3 111.0 104.5 359.2
09/05 02:50 10.8 89 8.8 9.1 9 11 1029.3 0.2 20.1 27.8 42.9 112.5 106.5 366.1

Last Refresh: 09-May-2026 19:19:27

Bureau of Meteorology